»·PEaware :: N899M KPHX-KLAS

N899M :: KPHX-KLAS

FLIGHT INFORMATION

Flight Status: Arrived
Operator: Privately registered:
United States
More flights under this callsign
Pilot: Robert C. (30425)
Aircraft: Unknown
(EPIC)
More flights by this aircraft type
Origin: KPHX Phoenix Sky Harbor Intl
United States
Destination: KLAS McCarran Intl
United States
More flights between these airports :: More routes between these airports
Route: +CHILY4 HOBES BLD
File this flight plan on PilotEdge
Remarks:
Altitude:
(Current/Filed)
16,000ft
Speed:
(Current/Filed)
300kts
Departed: 28-Oct-20 07:51 PM
Arrived: 28-Oct-20 08:54 PM
Distance/Time
Traveled:
222nm/1:02
Distance/Time
To Go:
Arrived

Flight Plot

Page will automatically refresh every two minutes.

Flight plan parsing failed; only flown route is shown


Map Options




Map Legend


Flown Route
Filed Route
Departure Airport
Arrival Airport
Navaid (VOR, NDB)
Fix

Horizontal Profiles

Position Reports

Time Latitude Longitude Heading Altitude Ground
Speed
28-Oct-20 19:24 33.442707 -112.024423 358 1112ft 0kts
28-Oct-20 19:25 33.442707 -112.024423 358 1112ft 0kts
28-Oct-20 19:26 33.442707 -112.024423 358 1112ft 0kts
28-Oct-20 19:27 33.442707 -112.024423 358 1112ft 0kts
28-Oct-20 19:28 33.442707 -112.024423 358 1112ft 0kts
28-Oct-20 19:29 33.442707 -112.024423 358 1112ft 0kts
28-Oct-20 19:30 33.442707 -112.024423 358 1112ft 0kts
28-Oct-20 19:31 33.442707 -112.024423 358 1112ft 0kts
28-Oct-20 19:32 33.442707 -112.024423 358 1112ft 0kts
28-Oct-20 19:33 33.442707 -112.024423 358 1112ft 0kts
28-Oct-20 19:34 33.442707 -112.024423 358 1112ft 0kts
28-Oct-20 19:35 33.442707 -112.024423 358 1112ft 0kts
28-Oct-20 19:36 33.442707 -112.024423 358 1112ft 0kts
28-Oct-20 19:37 33.442707 -112.024423 358 1112ft 0kts
28-Oct-20 19:38 33.442707 -112.024423 358 1112ft 0kts
28-Oct-20 19:39 33.442707 -112.024423 358 1112ft 0kts
28-Oct-20 19:40 33.442707 -112.024423 358 1112ft 0kts
28-Oct-20 19:41 33.442707 -112.024423 358 1112ft 0kts
28-Oct-20 19:42 33.442707 -112.024423 358 1112ft 0kts
28-Oct-20 19:43 33.442742 -112.024448 308 1112ft 0kts
28-Oct-20 19:44 33.442756 -112.024486 290 1112ft 1kts
28-Oct-20 19:45 33.442341 -112.025341 177 1112ft 4kts
28-Oct-20 19:46 33.441968 -112.029162 262 1109ft 17kts
28-Oct-20 19:47 33.441788 -112.029587 207 1109ft 0kts
28-Oct-20 19:48 33.441788 -112.029587 207 1109ft 0kts
28-Oct-20 19:49 33.441568 -112.029658 186 1109ft 9kts
28-Oct-20 19:50 33.441333 -112.000779 88 1538ft 169kts
28-Oct-20 19:51 33.440964 -111.934142 90 2499ft 244kts
28-Oct-20 19:52 33.454368 -111.852383 55 4011ft 267kts
28-Oct-20 19:53 33.496331 -111.777847 55 5509ft 273kts
28-Oct-20 19:54 33.538350 -111.702477 55 7269ft 269kts
28-Oct-20 19:55 33.583343 -111.632636 22 9031ft 266kts
28-Oct-20 19:56 33.640100 -111.677576 306 10805ft 278kts
28-Oct-20 19:57 33.686377 -111.751862 313 12599ft 279kts
28-Oct-20 19:58 33.729931 -111.829987 306 14389ft 282kts
28-Oct-20 19:59 33.772975 -111.908751 306 15988ft 289kts
28-Oct-20 20:01 33.822258 -111.992603 309 16011ft 316kts
28-Oct-20 20:02 33.873627 -112.077611 309 16006ft 314kts
28-Oct-20 20:03 33.924038 -112.161203 308 16005ft 301kts
28-Oct-20 20:04 33.972587 -112.241863 308 16006ft 295kts
28-Oct-20 20:05 34.020520 -112.321449 311 16003ft 292kts
28-Oct-20 20:06 34.088111 -112.371709 334 16001ft 285kts
28-Oct-20 20:07 34.159175 -112.415800 335 15922ft 287kts
28-Oct-20 20:08 34.229901 -112.459685 335 15970ft 285kts
28-Oct-20 20:09 34.300254 -112.503370 335 15983ft 284kts
28-Oct-20 20:10 34.370438 -112.547057 335 15983ft 284kts
28-Oct-20 20:11 34.440684 -112.590868 335 15982ft 284kts
28-Oct-20 20:12 34.510879 -112.634730 335 15982ft 284kts
28-Oct-20 20:13 34.581057 -112.678665 335 15980ft 284kts
28-Oct-20 20:14 34.651003 -112.722539 335 15980ft 283kts
28-Oct-20 20:14 34.709297 -112.759167 335 15979ft 283kts
28-Oct-20 20:16 34.790959 -112.810579 335 15979ft 283kts
28-Oct-20 20:16 34.849282 -112.847367 335 15979ft 284kts
28-Oct-20 20:18 34.930430 -112.901716 313 15975ft 291kts
28-Oct-20 20:18 34.954862 -112.979641 287 15980ft 300kts
28-Oct-20 20:20 34.979526 -113.094777 286 15975ft 301kts
28-Oct-20 20:20 34.996944 -113.177052 286 15966ft 302kts
28-Oct-20 20:21 35.017865 -113.276271 286 15954ft 301kts
28-Oct-20 20:22 35.039635 -113.374852 300 15930ft 299kts
28-Oct-20 20:23 35.090358 -113.453851 310 15952ft 296kts
28-Oct-20 20:24 35.141774 -113.532396 310 15955ft 296kts
28-Oct-20 20:25 35.193220 -113.611164 310 15955ft 296kts
28-Oct-20 20:26 35.244680 -113.690133 310 15954ft 296kts
28-Oct-20 20:27 35.295986 -113.769043 310 15954ft 296kts
28-Oct-20 20:28 35.347176 -113.847952 310 15954ft 296kts
28-Oct-20 20:29 35.397455 -113.925596 310 14998ft 286kts
28-Oct-20 20:30 35.446419 -114.001411 310 13993ft 281kts
28-Oct-20 20:31 35.492918 -114.073557 310 12975ft 259kts
28-Oct-20 20:32 35.536437 -114.141223 310 11968ft 249kts
28-Oct-20 20:33 35.578915 -114.207394 310 10966ft 246kts
28-Oct-20 20:34 35.621124 -114.273291 310 10055ft 243kts
28-Oct-20 20:35 35.662541 -114.337829 310 10024ft 237kts
28-Oct-20 20:36 35.703397 -114.400890 310 10014ft 233kts
28-Oct-20 20:37 35.743201 -114.462349 310 10001ft 228kts
28-Oct-20 20:38 35.782557 -114.523304 310 9999ft 226kts
28-Oct-20 20:39 35.821560 -114.583685 310 9711ft 221kts
28-Oct-20 20:40 35.857705 -114.640528 309 8688ft 203kts
28-Oct-20 20:41 35.891769 -114.694134 309 7691ft 186kts
28-Oct-20 20:42 35.923368 -114.743927 308 6246ft 186kts
28-Oct-20 20:43 35.956938 -114.791901 312 5000ft 173kts
28-Oct-20 20:44 35.987925 -114.827748 321 4994ft 142kts
28-Oct-20 20:45 36.019425 -114.857166 322 4999ft 141kts
28-Oct-20 20:46 36.050720 -114.886655 322 4999ft 141kts
28-Oct-20 20:47 36.076662 -114.922194 281 5086ft 138kts
28-Oct-20 20:48 36.070727 -114.974237 262 4500ft 163kts
28-Oct-20 20:49 36.072190 -115.029163 276 3841ft 166kts
28-Oct-20 20:50 36.073175 -115.068796 277 2927ft 89kts
28-Oct-20 20:51 36.073652 -115.100792 267 2497ft 101kts
28-Oct-20 20:52 36.073586 -115.134302 270 2064ft 64kts
28-Oct-20 20:53 36.074786 -115.146035 303 2099ft 0kts
28-Oct-20 20:54 36.077368 -115.146768 348 2099ft 0kts
28-Oct-20 20:55 36.077368 -115.146768 348 2099ft 0kts
28-Oct-20 20:56 36.077375 -115.146770 348 2099ft 0kts
28-Oct-20 20:57 36.079390 -115.146816 25 2093ft 5kts
28-Oct-20 20:58 36.079637 -115.146648 32 2091ft 0kts
28-Oct-20 20:59 36.079637 -115.146648 32 2091ft 0kts

Navigation Log

Ident Type
Flight plan parsing failed, navigation log unavailable